createdAt,value
2022-10-06T00:00:47.523Z,5.20
2022-10-06T00:05:47.531Z,5.30
2022-10-06T00:10:47.323Z,6.40
2022-10-06T00:15:47.347Z,7.40
2022-10-06T00:20:47.394Z,6.60
2022-10-06T00:25:47.173Z,5.00
2022-10-06T00:30:47.150Z,8.20
2022-10-06T00:35:47.004Z,6.60
2022-10-06T00:40:46.988Z,6.70
2022-10-06T00:45:47.070Z,7.00
2022-10-06T00:50:46.978Z,6.70
2022-10-06T00:55:46.789Z,15.00
2022-10-06T01:00:47.834Z,7.30
2022-10-06T01:05:46.828Z,7.90
2022-10-06T01:10:46.811Z,13.60
2022-10-06T01:15:46.609Z,6.80
2022-10-06T01:20:46.510Z,9.30
2022-10-06T01:25:46.612Z,10.20
2022-10-06T01:30:46.431Z,5.90
2022-10-06T01:35:46.374Z,10.70
2022-10-06T01:40:46.339Z,12.60
2022-10-06T01:45:46.276Z,18.30
2022-10-06T01:50:46.225Z,12.80
2022-10-06T01:55:46.182Z,9.90
2022-10-06T02:00:46.172Z,15.00
2022-10-06T02:05:46.008Z,9.90
2022-10-06T02:10:45.998Z,17.50
2022-10-06T02:15:45.912Z,11.20
2022-10-06T02:20:45.864Z,16.00
2022-10-06T02:25:45.815Z,10.30
2022-10-06T02:30:45.723Z,17.70
2022-10-06T02:35:45.680Z,11.90
2022-10-06T02:40:45.602Z,17.30
2022-10-06T02:45:45.584Z,19.30
2022-10-06T02:50:45.534Z,10.00
2022-10-06T02:55:45.655Z,15.40
2022-10-06T03:00:45.504Z,14.20
2022-10-06T03:05:46.394Z,16.90
2022-10-06T03:10:45.378Z,11.20
2022-10-06T03:15:45.367Z,14.70
2022-10-06T03:20:45.280Z,12.80
2022-10-06T03:25:45.167Z,16.20
2022-10-06T03:30:53.950Z,11.50
2022-10-06T03:35:44.969Z,17.20
2022-10-06T03:40:44.954Z,13.20
2022-10-06T03:45:44.878Z,11.60
2022-10-06T03:50:44.830Z,17.50
2022-10-06T03:55:44.847Z,17.10
2022-10-06T04:00:44.829Z,15.30
2022-10-06T04:05:44.688Z,16.80
2022-10-06T04:10:44.570Z,17.40
2022-10-06T04:15:44.524Z,21.30
2022-10-06T04:20:44.459Z,11.10
2022-10-06T04:25:44.439Z,18.80
2022-10-06T04:30:44.334Z,14.10
2022-10-06T04:35:44.305Z,18.10
2022-10-06T04:40:44.246Z,19.10
2022-10-06T04:45:44.198Z,16.80
2022-10-06T04:50:44.217Z,18.20
2022-10-06T04:55:44.133Z,15.40
2022-10-06T05:00:44.149Z,18.90
2022-10-06T05:05:44.011Z,17.90
2022-10-06T05:10:43.893Z,19.90
2022-10-06T05:15:43.838Z,15.50
2022-10-06T05:20:43.791Z,19.10
2022-10-06T05:25:43.782Z,21.50
2022-10-06T05:30:43.683Z,19.80
2022-10-06T05:35:43.695Z,17.70
2022-10-06T05:40:43.718Z,18.00
2022-10-06T05:45:43.636Z,20.90
2022-10-06T05:50:45.449Z,20.00
2022-10-06T05:55:43.400Z,16.30
2022-10-06T06:00:43.375Z,26.60
2022-10-06T06:05:43.287Z,19.30
2022-10-06T06:10:43.230Z,19.00
2022-10-06T06:15:43.222Z,14.80
2022-10-06T06:20:43.281Z,27.20
2022-10-06T06:25:43.196Z,21.70
2022-10-06T06:30:43.107Z,21.80
2022-10-06T06:35:43.032Z,34.30
2022-10-06T06:40:46.530Z,20.50
2022-10-06T06:45:42.942Z,30.90
2022-10-06T06:50:42.957Z,29.90
2022-10-06T06:55:42.885Z,27.70
2022-10-06T07:00:43.901Z,23.80
2022-10-06T07:05:42.719Z,23.00
2022-10-06T07:10:42.728Z,23.70
2022-10-06T07:15:42.744Z,29.40
2022-10-06T07:20:42.617Z,26.70
2022-10-06T07:25:43.592Z,18.50
2022-10-06T07:30:43.570Z,27.70
2022-10-06T07:35:44.389Z,20.00
2022-10-06T07:40:50.643Z,22.80
2022-10-06T07:45:43.368Z,19.50
2022-10-06T07:50:42.243Z,23.20
2022-10-06T07:55:42.154Z,23.40
2022-10-06T08:00:42.066Z,30.30
2022-10-06T08:05:42.003Z,34.80
2022-10-06T08:10:41.993Z,27.60
2022-10-06T08:15:42.006Z,26.70
2022-10-06T08:20:41.891Z,30.30
2022-10-06T08:25:41.739Z,28.10
2022-10-06T08:30:41.713Z,32.00
2022-10-06T08:35:41.766Z,25.80
2022-10-06T08:40:41.717Z,27.40
2022-10-06T08:45:41.697Z,29.70
2022-10-06T08:50:41.573Z,24.10
2022-10-06T08:55:41.527Z,24.20
2022-10-06T09:00:41.360Z,26.20
2022-10-06T09:05:41.364Z,27.00
2022-10-06T09:10:41.357Z,25.10
2022-10-06T09:15:41.267Z,25.30
2022-10-06T09:20:41.160Z,19.10
2022-10-06T09:25:41.117Z,24.10
2022-10-06T09:30:54.566Z,20.10
2022-10-06T09:35:41.933Z,22.40
2022-10-06T09:40:40.913Z,24.50
2022-10-06T09:45:40.880Z,16.20
2022-10-06T09:50:40.785Z,22.60
2022-10-06T09:55:41.342Z,21.10
2022-10-06T10:00:40.873Z,25.10
2022-10-06T10:05:40.750Z,18.70
2022-10-06T10:10:40.569Z,18.90
2022-10-06T10:15:40.653Z,23.10
2022-10-06T10:20:41.156Z,26.40
2022-10-06T10:25:40.430Z,18.90
2022-10-06T10:30:40.463Z,16.80
2022-10-06T10:35:40.914Z,17.50
2022-10-06T10:40:40.462Z,17.60
2022-10-06T10:45:40.236Z,15.20
2022-10-06T10:50:41.422Z,15.70
2022-10-06T10:55:40.278Z,15.20
2022-10-06T11:00:40.301Z,8.90
2022-10-06T11:05:40.090Z,17.00
2022-10-06T11:10:39.995Z,15.00
2022-10-06T11:15:41.282Z,12.30
2022-10-06T11:20:40.068Z,12.90
2022-10-06T11:25:39.915Z,16.30
2022-10-06T11:30:41.985Z,12.30
2022-10-06T11:35:39.704Z,11.70
2022-10-06T11:40:39.662Z,11.70
2022-10-06T11:45:39.665Z,19.60
2022-10-06T11:50:39.626Z,12.40
2022-10-06T11:55:39.500Z,11.10
2022-10-06T12:00:39.677Z,9.80
2022-10-06T12:05:56.666Z,17.60
2022-10-06T12:10:40.361Z,12.40
2022-10-06T12:20:40.368Z,10.80
2022-10-06T12:25:39.214Z,10.70
2022-10-06T12:30:39.106Z,11.50
2022-10-06T12:35:39.224Z,8.70
2022-10-06T12:40:40.300Z,12.00
2022-10-06T12:45:43.563Z,11.40
2022-10-06T12:50:39.918Z,15.20
2022-10-06T12:55:38.870Z,15.60
2022-10-06T13:00:38.887Z,14.00
2022-10-06T13:05:38.685Z,11.20
2022-10-06T13:10:38.762Z,14.30
2022-10-06T13:15:38.844Z,11.10
2022-10-06T13:20:38.564Z,11.00
2022-10-06T13:25:38.506Z,10.30
2022-10-06T13:30:39.024Z,16.00
2022-10-06T13:35:38.409Z,13.20
2022-10-06T13:40:44.625Z,14.70
2022-10-06T13:45:39.439Z,11.70
2022-10-06T13:50:38.179Z,10.10
2022-10-06T13:55:38.363Z,7.60
2022-10-06T14:00:38.147Z,13.50
2022-10-06T14:05:38.068Z,12.10
2022-10-06T14:10:39.029Z,12.10
2022-10-06T14:15:38.054Z,14.70
2022-10-06T14:20:39.250Z,15.80
2022-10-06T14:25:37.886Z,15.20
2022-10-06T14:30:37.792Z,13.90
2022-10-06T14:35:37.710Z,15.20
2022-10-06T14:40:37.787Z,14.00
2022-10-06T14:45:37.660Z,17.20
2022-10-06T14:50:37.553Z,14.80
2022-10-06T14:55:37.617Z,11.40
2022-10-06T15:00:37.594Z,13.80
2022-10-06T15:05:37.549Z,11.90
2022-10-06T15:10:37.399Z,21.10
2022-10-06T15:15:37.399Z,11.80
2022-10-06T15:20:37.309Z,12.50
2022-10-06T15:25:37.253Z,14.80
2022-10-06T15:44:04.752Z,10.20
2022-10-06T15:49:05.776Z,10.60
2022-10-06T15:54:06.524Z,8.70
2022-10-06T15:59:04.870Z,8.70
2022-10-06T16:07:09.409Z,11.90
2022-10-06T16:12:09.476Z,12.30
2022-10-06T16:17:09.602Z,12.90
2022-10-06T16:22:09.296Z,15.00
2022-10-06T16:27:09.144Z,14.40
2022-10-06T16:32:10.047Z,10.10
2022-10-06T16:37:09.027Z,8.80
2022-10-06T16:42:09.002Z,9.90
2022-10-06T16:47:10.070Z,13.10
2022-10-06T16:52:08.879Z,10.00
2022-10-06T16:57:08.815Z,15.20
2022-10-06T17:02:08.965Z,16.20
2022-10-06T17:07:12.018Z,14.00
2022-10-06T17:12:08.662Z,11.90
2022-10-06T17:17:08.655Z,7.80
2022-10-06T17:22:08.559Z,12.60
2022-10-06T17:27:08.486Z,14.50
2022-10-06T17:32:08.515Z,9.30
2022-10-06T17:37:08.461Z,10.30
2022-10-06T17:42:08.452Z,10.40
2022-10-06T17:47:08.377Z,19.30
2022-10-06T17:52:08.132Z,17.00
2022-10-06T17:57:11.720Z,18.90
2022-10-06T18:02:09.154Z,52.10
2022-10-06T18:07:08.037Z,17.40
2022-10-06T18:12:07.935Z,21.30
2022-10-06T18:17:08.013Z,17.10
2022-10-06T18:22:07.923Z,19.50
2022-10-06T18:27:08.156Z,17.10
2022-10-06T18:32:59.225Z,16.50
2022-10-06T18:37:09.852Z,15.10
2022-10-06T18:42:07.641Z,12.20
2022-10-06T18:47:07.558Z,15.50
2022-10-06T18:52:07.513Z,13.50
2022-10-06T18:57:10.860Z,9.10
2022-10-06T19:02:07.427Z,18.60
2022-10-06T19:07:08.380Z,15.70
2022-10-06T19:12:07.414Z,15.80
2022-10-06T19:17:07.364Z,16.70
2022-10-06T19:22:07.198Z,21.00
2022-10-06T19:27:07.185Z,22.80
2022-10-06T19:32:07.108Z,16.40
2022-10-06T19:37:07.039Z,23.10
2022-10-06T19:42:07.058Z,13.10
2022-10-06T19:47:06.977Z,19.00
2022-10-06T19:52:06.843Z,14.30
2022-10-06T19:57:06.887Z,17.70
2022-10-06T20:02:06.752Z,18.80
2022-10-06T20:07:06.788Z,16.70
2022-10-06T20:12:07.659Z,16.70
2022-10-06T20:17:06.668Z,19.40
2022-10-06T20:22:09.937Z,22.50
2022-10-06T20:27:06.499Z,17.40
2022-10-06T20:32:06.514Z,17.70
2022-10-06T20:37:06.464Z,14.90
2022-10-06T20:42:09.375Z,16.70
2022-10-06T20:47:07.313Z,15.70
2022-10-06T20:52:06.256Z,14.10
2022-10-06T20:57:06.238Z,19.70
2022-10-06T21:02:06.160Z,15.50
2022-10-06T21:07:06.195Z,14.20
2022-10-06T21:12:05.982Z,17.10
2022-10-06T21:17:05.941Z,19.80
2022-10-06T21:22:05.890Z,14.00
2022-10-06T21:27:05.855Z,16.60
2022-10-06T21:34:45.683Z,15.90
2022-10-06T21:39:45.562Z,17.10
2022-10-06T21:44:45.547Z,16.40
2022-10-06T21:49:45.646Z,15.20
2022-10-06T21:54:45.661Z,18.00
2022-10-06T21:59:45.350Z,20.40
2022-10-06T22:04:45.432Z,21.40
2022-10-06T22:09:45.245Z,22.80
2022-10-06T22:14:46.321Z,17.90
2022-10-06T22:19:45.210Z,19.20
2022-10-06T22:24:45.153Z,17.70
2022-10-06T22:29:45.044Z,19.10
2022-10-06T22:34:44.979Z,14.50
2022-10-06T22:39:44.966Z,17.40
2022-10-06T22:44:44.874Z,14.30
2022-10-06T22:49:44.882Z,22.90
2022-10-06T22:54:44.914Z,18.70
2022-10-06T22:59:44.696Z,16.30
2022-10-06T23:04:44.796Z,16.30
2022-10-06T23:09:44.726Z,18.10
2022-10-06T23:14:44.529Z,15.60
2022-10-06T23:19:44.471Z,15.30
2022-10-06T23:24:44.471Z,20.10
2022-10-06T23:29:44.365Z,16.50
2022-10-06T23:34:44.440Z,22.50
2022-10-06T23:39:44.334Z,26.40
2022-10-06T23:44:44.278Z,15.40
2022-10-06T23:49:46.255Z,17.50
2022-10-06T23:54:44.185Z,16.40
2022-10-06T23:59:44.023Z,18.70
